sensor_id;sensor_type;location;lat;lon;timestamp;temperature;humidity
14236;DHT22;7202;50.718;7.072;2023-05-17T00:00:21;10.60;99.90
14236;DHT22;7202;50.718;7.072;2023-05-17T00:02:50;10.50;99.90
14236;DHT22;7202;50.718;7.072;2023-05-17T00:05:19;10.50;99.90
14236;DHT22;7202;50.718;7.072;2023-05-17T00:07:49;10.40;99.90
14236;DHT22;7202;50.718;7.072;2023-05-17T00:10:19;10.40;99.90
14236;DHT22;7202;50.718;7.072;2023-05-17T00:12:48;10.30;99.90
14236;DHT22;7202;50.718;7.072;2023-05-17T00:15:17;10.30;99.90
14236;DHT22;7202;50.718;7.072;2023-05-17T00:17:45;10.30;99.90
14236;DHT22;7202;50.718;7.072;2023-05-17T00:20:14;10.20;99.90
14236;DHT22;7202;50.718;7.072;2023-05-17T00:22:43;10.20;99.90
14236;DHT22;7202;50.718;7.072;2023-05-17T00:25:13;10.20;99.90
14236;DHT22;7202;50.718;7.072;2023-05-17T00:27:43;10.20;99.90
14236;DHT22;7202;50.718;7.072;2023-05-17T00:30:12;10.10;99.90
14236;DHT22;7202;50.718;7.072;2023-05-17T00:32:41;10.10;99.90
14236;DHT22;7202;50.718;7.072;2023-05-17T00:35:10;10.10;99.90
14236;DHT22;7202;50.718;7.072;2023-05-17T00:37:39;10.00;99.90
14236;DHT22;7202;50.718;7.072;2023-05-17T00:40:11;10.00;99.90
14236;DHT22;7202;50.718;7.072;2023-05-17T00:42:40;10.00;99.90
14236;DHT22;7202;50.718;7.072;2023-05-17T00:45:10;10.00;99.90
14236;DHT22;7202;50.718;7.072;2023-05-17T00:47:39;9.90;99.90
14236;DHT22;7202;50.718;7.072;2023-05-17T00:50:10;9.90;99.90
14236;DHT22;7202;50.718;7.072;2023-05-17T00:52:39;9.90;99.90
14236;DHT22;7202;50.718;7.072;2023-05-17T00:55:08;9.90;99.90
14236;DHT22;7202;50.718;7.072;2023-05-17T00:57:37;9.80;99.90
14236;DHT22;7202;50.718;7.072;2023-05-17T01:00:07;9.80;99.90
14236;DHT22;7202;50.718;7.072;2023-05-17T01:02:37;9.80;99.90
14236;DHT22;7202;50.718;7.072;2023-05-17T01:05:07;9.80;99.90
14236;DHT22;7202;50.718;7.072;2023-05-17T01:07:36;9.70;99.90
14236;DHT22;7202;50.718;7.072;2023-05-17T01:10:06;9.70;99.90
14236;DHT22;7202;50.718;7.072;2023-05-17T01:12:45;9.70;99.90
14236;DHT22;7202;50.718;7.072;2023-05-17T01:15:22;9.60;99.90
14236;DHT22;7202;50.718;7.072;2023-05-17T01:18:02;9.60;99.90
14236;DHT22;7202;50.718;7.072;2023-05-17T01:20:36;9.60;99.90
14236;DHT22;7202;50.718;7.072;2023-05-17T01:23:23;9.50;99.90
14236;DHT22;7202;50.718;7.072;2023-05-17T01:25:56;9.50;99.90
14236;DHT22;7202;50.718;7.072;2023-05-17T01:28:29;9.50;99.90
14236;DHT22;7202;50.718;7.072;2023-05-17T01:31:02;9.50;99.90
14236;DHT22;7202;50.718;7.072;2023-05-17T01:33:31;9.50;99.90
14236;DHT22;7202;50.718;7.072;2023-05-17T01:36:01;9.40;99.90
14236;DHT22;7202;50.718;7.072;2023-05-17T01:38:29;9.40;99.90
14236;DHT22;7202;50.718;7.072;2023-05-17T01:41:10;9.40;99.90
14236;DHT22;7202;50.718;7.072;2023-05-17T01:43:45;9.30;99.90
14236;DHT22;7202;50.718;7.072;2023-05-17T01:46:20;9.30;99.90
14236;DHT22;7202;50.718;7.072;2023-05-17T01:48:59;9.30;99.90
14236;DHT22;7202;50.718;7.072;2023-05-17T01:51:43;9.30;99.90
14236;DHT22;7202;50.718;7.072;2023-05-17T01:54:18;9.30;99.90
14236;DHT22;7202;50.718;7.072;2023-05-17T01:56:53;9.20;99.90
14236;DHT22;7202;50.718;7.072;2023-05-17T01:59:24;9.20;99.90
14236;DHT22;7202;50.718;7.072;2023-05-17T02:01:57;9.20;99.90
14236;DHT22;7202;50.718;7.072;2023-05-17T02:04:30;9.20;99.90
14236;DHT22;7202;50.718;7.072;2023-05-17T02:07:01;9.20;99.90
14236;DHT22;7202;50.718;7.072;2023-05-17T02:09:30;9.10;99.90
14236;DHT22;7202;50.718;7.072;2023-05-17T02:11:59;9.10;99.90
14236;DHT22;7202;50.718;7.072;2023-05-17T02:14:29;9.20;99.90
14236;DHT22;7202;50.718;7.072;2023-05-17T02:16:58;9.20;99.90
14236;DHT22;7202;50.718;7.072;2023-05-17T02:19:27;9.20;99.90
14236;DHT22;7202;50.718;7.072;2023-05-17T02:21:55;9.20;99.90
14236;DHT22;7202;50.718;7.072;2023-05-17T02:24:24;9.20;99.90
14236;DHT22;7202;50.718;7.072;2023-05-17T02:26:53;9.20;99.90
14236;DHT22;7202;50.718;7.072;2023-05-17T02:29:22;9.20;99.90
14236;DHT22;7202;50.718;7.072;2023-05-17T02:31:53;9.30;99.90
14236;DHT22;7202;50.718;7.072;2023-05-17T02:34:21;9.30;99.90
14236;DHT22;7202;50.718;7.072;2023-05-17T02:36:50;9.20;99.90
14236;DHT22;7202;50.718;7.072;2023-05-17T02:39:19;9.30;99.90
14236;DHT22;7202;50.718;7.072;2023-05-17T02:41:47;9.30;99.90
14236;DHT22;7202;50.718;7.072;2023-05-17T02:44:16;9.30;99.90
14236;DHT22;7202;50.718;7.072;2023-05-17T02:46:45;9.30;99.90
14236;DHT22;7202;50.718;7.072;2023-05-17T02:49:15;9.30;99.90
14236;DHT22;7202;50.718;7.072;2023-05-17T02:51:44;9.30;99.90
14236;DHT22;7202;50.718;7.072;2023-05-17T02:54:12;9.30;99.90
14236;DHT22;7202;50.718;7.072;2023-05-17T02:56:41;9.30;99.90
14236;DHT22;7202;50.718;7.072;2023-05-17T02:59:10;9.30;99.90
14236;DHT22;7202;50.718;7.072;2023-05-17T03:01:41;9.30;99.90
14236;DHT22;7202;50.718;7.072;2023-05-17T03:04:10;9.30;99.90
14236;DHT22;7202;50.718;7.072;2023-05-17T03:06:41;9.30;99.90
14236;DHT22;7202;50.718;7.072;2023-05-17T03:09:10;9.30;99.90
14236;DHT22;7202;50.718;7.072;2023-05-17T03:11:39;9.30;99.90
14236;DHT22;7202;50.718;7.072;2023-05-17T03:14:15;9.30;99.90
14236;DHT22;7202;50.718;7.072;2023-05-17T03:16:43;9.30;99.90
14236;DHT22;7202;50.718;7.072;2023-05-17T03:19:12;9.30;99.90
14236;DHT22;7202;50.718;7.072;2023-05-17T03:21:44;9.40;99.90
14236;DHT22;7202;50.718;7.072;2023-05-17T03:24:13;9.40;99.90
14236;DHT22;7202;50.718;7.072;2023-05-17T03:26:42;9.40;99.90
14236;DHT22;7202;50.718;7.072;2023-05-17T03:29:12;9.40;99.90
14236;DHT22;7202;50.718;7.072;2023-05-17T03:31:42;9.30;99.90
14236;DHT22;7202;50.718;7.072;2023-05-17T03:34:12;9.40;99.90
14236;DHT22;7202;50.718;7.072;2023-05-17T03:36:43;9.30;99.90
14236;DHT22;7202;50.718;7.072;2023-05-17T03:39:12;9.30;99.90
14236;DHT22;7202;50.718;7.072;2023-05-17T03:41:42;9.40;99.90
14236;DHT22;7202;50.718;7.072;2023-05-17T03:44:10;9.30;99.90
14236;DHT22;7202;50.718;7.072;2023-05-17T03:46:39;9.20;99.90
14236;DHT22;7202;50.718;7.072;2023-05-17T03:49:08;9.20;99.90
14236;DHT22;7202;50.718;7.072;2023-05-17T03:51:38;9.20;99.90
14236;DHT22;7202;50.718;7.072;2023-05-17T03:54:08;9.20;99.90
14236;DHT22;7202;50.718;7.072;2023-05-17T03:56:37;9.10;99.90
14236;DHT22;7202;50.718;7.072;2023-05-17T03:59:06;9.10;99.90
14236;DHT22;7202;50.718;7.072;2023-05-17T04:01:35;9.10;99.90
14236;DHT22;7202;50.718;7.072;2023-05-17T04:04:04;9.10;99.90
14236;DHT22;7202;50.718;7.072;2023-05-17T04:06:33;9.10;99.90
14236;DHT22;7202;50.718;7.072;2023-05-17T04:09:03;9.10;99.90
14236;DHT22;7202;50.718;7.072;2023-05-17T04:11:33;9.10;99.90
14236;DHT22;7202;50.718;7.072;2023-05-17T04:14:01;9.10;99.90
14236;DHT22;7202;50.718;7.072;2023-05-17T04:16:30;9.10;99.90
14236;DHT22;7202;50.718;7.072;2023-05-17T04:18:59;9.10;99.90
14236;DHT22;7202;50.718;7.072;2023-05-17T04:21:29;9.00;99.90
14236;DHT22;7202;50.718;7.072;2023-05-17T04:23:58;9.00;99.90
14236;DHT22;7202;50.718;7.072;2023-05-17T04:26:28;9.00;99.90
14236;DHT22;7202;50.718;7.072;2023-05-17T04:28:58;9.00;99.90
14236;DHT22;7202;50.718;7.072;2023-05-17T04:31:27;8.90;99.90
14236;DHT22;7202;50.718;7.072;2023-05-17T04:33:56;9.00;99.90
14236;DHT22;7202;50.718;7.072;2023-05-17T04:36:25;8.90;99.90
14236;DHT22;7202;50.718;7.072;2023-05-17T04:38:54;9.00;99.90
14236;DHT22;7202;50.718;7.072;2023-05-17T04:41:27;9.00;99.90
14236;DHT22;7202;50.718;7.072;2023-05-17T04:43:55;9.00;99.90
14236;DHT22;7202;50.718;7.072;2023-05-17T04:46:32;9.00;99.90
14236;DHT22;7202;50.718;7.072;2023-05-17T04:49:00;9.10;99.90
14236;DHT22;7202;50.718;7.072;2023-05-17T04:51:30;9.10;99.90
14236;DHT22;7202;50.718;7.072;2023-05-17T04:54:00;9.10;99.90
14236;DHT22;7202;50.718;7.072;2023-05-17T04:56:30;9.10;99.90
14236;DHT22;7202;50.718;7.072;2023-05-17T04:58:59;9.20;99.90
14236;DHT22;7202;50.718;7.072;2023-05-17T05:01:29;9.20;99.90
14236;DHT22;7202;50.718;7.072;2023-05-17T05:04:00;9.30;99.90
14236;DHT22;7202;50.718;7.072;2023-05-17T05:06:37;9.40;99.90
14236;DHT22;7202;50.718;7.072;2023-05-17T05:09:07;9.40;99.90
14236;DHT22;7202;50.718;7.072;2023-05-17T05:11:38;9.40;99.90
14236;DHT22;7202;50.718;7.072;2023-05-17T05:14:06;9.40;99.90
14236;DHT22;7202;50.718;7.072;2023-05-17T05:16:35;9.40;99.90
14236;DHT22;7202;50.718;7.072;2023-05-17T05:19:05;9.40;99.90
14236;DHT22;7202;50.718;7.072;2023-05-17T05:21:36;9.40;99.90
14236;DHT22;7202;50.718;7.072;2023-05-17T05:24:06;9.40;99.90
14236;DHT22;7202;50.718;7.072;2023-05-17T05:26:35;9.40;99.90
14236;DHT22;7202;50.718;7.072;2023-05-17T05:29:04;9.40;99.90
14236;DHT22;7202;50.718;7.072;2023-05-17T05:31:33;9.40;99.90
14236;DHT22;7202;50.718;7.072;2023-05-17T05:34:05;9.50;99.90
14236;DHT22;7202;50.718;7.072;2023-05-17T05:36:33;9.60;99.90
14236;DHT22;7202;50.718;7.072;2023-05-17T05:39:02;9.50;99.90
14236;DHT22;7202;50.718;7.072;2023-05-17T05:41:34;9.60;99.90
14236;DHT22;7202;50.718;7.072;2023-05-17T05:44:03;9.60;99.90
14236;DHT22;7202;50.718;7.072;2023-05-17T05:46:32;9.70;99.90
14236;DHT22;7202;50.718;7.072;2023-05-17T05:49:02;9.70;99.90
14236;DHT22;7202;50.718;7.072;2023-05-17T05:51:34;9.70;99.90
14236;DHT22;7202;50.718;7.072;2023-05-17T05:54:02;9.90;99.90
14236;DHT22;7202;50.718;7.072;2023-05-17T05:56:31;9.90;99.90
14236;DHT22;7202;50.718;7.072;2023-05-17T05:59:00;10.00;99.90
14236;DHT22;7202;50.718;7.072;2023-05-17T06:01:29;10.00;99.90
14236;DHT22;7202;50.718;7.072;2023-05-17T06:03:57;10.00;99.90
14236;DHT22;7202;50.718;7.072;2023-05-17T06:06:26;10.10;99.90
14236;DHT22;7202;50.718;7.072;2023-05-17T06:08:56;10.10;99.90
14236;DHT22;7202;50.718;7.072;2023-05-17T06:11:26;10.30;99.90
14236;DHT22;7202;50.718;7.072;2023-05-17T06:13:54;10.30;99.90
14236;DHT22;7202;50.718;7.072;2023-05-17T06:16:23;10.30;99.90
14236;DHT22;7202;50.718;7.072;2023-05-17T06:18:52;10.30;99.90
14236;DHT22;7202;50.718;7.072;2023-05-17T06:21:21;10.30;99.90
14236;DHT22;7202;50.718;7.072;2023-05-17T06:23:49;10.30;99.90
14236;DHT22;7202;50.718;7.072;2023-05-17T06:26:19;10.30;99.90
14236;DHT22;7202;50.718;7.072;2023-05-17T06:28:48;10.30;99.90
14236;DHT22;7202;50.718;7.072;2023-05-17T06:31:17;10.30;99.90
14236;DHT22;7202;50.718;7.072;2023-05-17T06:33:47;10.30;99.90
14236;DHT22;7202;50.718;7.072;2023-05-17T06:36:16;10.20;99.90
14236;DHT22;7202;50.718;7.072;2023-05-17T06:38:44;10.20;99.90
14236;DHT22;7202;50.718;7.072;2023-05-17T06:41:13;10.10;99.90
14236;DHT22;7202;50.718;7.072;2023-05-17T06:43:44;10.10;99.90
14236;DHT22;7202;50.718;7.072;2023-05-17T06:46:12;10.10;99.90
14236;DHT22;7202;50.718;7.072;2023-05-17T06:48:41;10.10;99.90
14236;DHT22;7202;50.718;7.072;2023-05-17T06:51:10;10.10;99.90
14236;DHT22;7202;50.718;7.072;2023-05-17T06:53:39;10.00;99.90
14236;DHT22;7202;50.718;7.072;2023-05-17T06:56:07;10.00;99.90
14236;DHT22;7202;50.718;7.072;2023-05-17T06:58:36;10.00;99.90
14236;DHT22;7202;50.718;7.072;2023-05-17T07:01:06;10.00;99.90
14236;DHT22;7202;50.718;7.072;2023-05-17T07:03:35;10.00;99.90
14236;DHT22;7202;50.718;7.072;2023-05-17T07:06:04;10.00;99.90
14236;DHT22;7202;50.718;7.072;2023-05-17T07:08:33;10.10;99.90
14236;DHT22;7202;50.718;7.072;2023-05-17T07:11:01;10.10;99.90
14236;DHT22;7202;50.718;7.072;2023-05-17T07:13:30;10.20;99.90
14236;DHT22;7202;50.718;7.072;2023-05-17T07:15:59;10.30;99.90
14236;DHT22;7202;50.718;7.072;2023-05-17T07:18:29;10.40;99.90
14236;DHT22;7202;50.718;7.072;2023-05-17T07:20:58;10.40;99.90
14236;DHT22;7202;50.718;7.072;2023-05-17T07:23:29;10.50;99.90
14236;DHT22;7202;50.718;7.072;2023-05-17T07:26:00;10.60;99.90
14236;DHT22;7202;50.718;7.072;2023-05-17T07:28:29;10.70;99.90
14236;DHT22;7202;50.718;7.072;2023-05-17T07:30:58;10.80;99.90
14236;DHT22;7202;50.718;7.072;2023-05-17T07:33:26;10.80;99.90
14236;DHT22;7202;50.718;7.072;2023-05-17T07:35:57;10.90;99.90
14236;DHT22;7202;50.718;7.072;2023-05-17T07:38:25;11.00;99.90
14236;DHT22;7202;50.718;7.072;2023-05-17T07:40:55;11.10;99.90
14236;DHT22;7202;50.718;7.072;2023-05-17T07:43:24;11.10;99.90
14236;DHT22;7202;50.718;7.072;2023-05-17T07:45:52;11.20;99.90
14236;DHT22;7202;50.718;7.072;2023-05-17T07:48:21;11.30;99.90
14236;DHT22;7202;50.718;7.072;2023-05-17T07:50:50;11.30;99.90
14236;DHT22;7202;50.718;7.072;2023-05-17T07:53:20;11.40;99.90
14236;DHT22;7202;50.718;7.072;2023-05-17T07:55:49;11.40;99.90
14236;DHT22;7202;50.718;7.072;2023-05-17T07:58:18;11.50;99.90
14236;DHT22;7202;50.718;7.072;2023-05-17T08:00:47;11.50;99.90
14236;DHT22;7202;50.718;7.072;2023-05-17T08:03:16;11.50;99.90
14236;DHT22;7202;50.718;7.072;2023-05-17T08:05:44;11.50;99.90
14236;DHT22;7202;50.718;7.072;2023-05-17T08:08:13;11.50;99.90
14236;DHT22;7202;50.718;7.072;2023-05-17T08:10:43;11.60;99.90
14236;DHT22;7202;50.718;7.072;2023-05-17T08:13:12;11.70;99.90
14236;DHT22;7202;50.718;7.072;2023-05-17T08:15:41;11.70;99.90
14236;DHT22;7202;50.718;7.072;2023-05-17T08:18:10;11.80;99.90
14236;DHT22;7202;50.718;7.072;2023-05-17T08:20:39;11.90;99.90
14236;DHT22;7202;50.718;7.072;2023-05-17T08:23:07;12.00;99.90
14236;DHT22;7202;50.718;7.072;2023-05-17T08:25:36;12.10;99.90
14236;DHT22;7202;50.718;7.072;2023-05-17T08:28:06;12.10;99.90
14236;DHT22;7202;50.718;7.072;2023-05-17T08:30:37;12.20;99.90
14236;DHT22;7202;50.718;7.072;2023-05-17T08:33:08;12.30;99.90
14236;DHT22;7202;50.718;7.072;2023-05-17T08:35:37;12.30;99.90
14236;DHT22;7202;50.718;7.072;2023-05-17T08:38:06;12.40;99.90
14236;DHT22;7202;50.718;7.072;2023-05-17T08:40:35;12.30;99.90
14236;DHT22;7202;50.718;7.072;2023-05-17T08:43:04;12.30;99.90
14236;DHT22;7202;50.718;7.072;2023-05-17T08:45:35;12.40;99.90
14236;DHT22;7202;50.718;7.072;2023-05-17T08:48:05;12.50;99.90
14236;DHT22;7202;50.718;7.072;2023-05-17T08:50:33;12.50;99.90
14236;DHT22;7202;50.718;7.072;2023-05-17T08:53:02;12.50;99.90
14236;DHT22;7202;50.718;7.072;2023-05-17T08:55:32;12.50;99.90
14236;DHT22;7202;50.718;7.072;2023-05-17T08:58:01;12.60;99.90
14236;DHT22;7202;50.718;7.072;2023-05-17T09:00:30;12.70;99.90
14236;DHT22;7202;50.718;7.072;2023-05-17T09:03:02;12.80;99.90
14236;DHT22;7202;50.718;7.072;2023-05-17T09:05:32;12.90;99.90
14236;DHT22;7202;50.718;7.072;2023-05-17T09:08:03;12.90;99.90
14236;DHT22;7202;50.718;7.072;2023-05-17T09:10:31;12.90;99.90
14236;DHT22;7202;50.718;7.072;2023-05-17T09:13:00;12.90;99.90
14236;DHT22;7202;50.718;7.072;2023-05-17T09:15:30;12.80;99.90
14236;DHT22;7202;50.718;7.072;2023-05-17T09:18:02;12.90;99.90
14236;DHT22;7202;50.718;7.072;2023-05-17T09:20:30;13.00;99.90
14236;DHT22;7202;50.718;7.072;2023-05-17T09:23:01;13.10;99.90
14236;DHT22;7202;50.718;7.072;2023-05-17T09:25:31;13.30;99.90
14236;DHT22;7202;50.718;7.072;2023-05-17T09:28:00;13.30;99.90
14236;DHT22;7202;50.718;7.072;2023-05-17T09:30:31;13.40;99.90
14236;DHT22;7202;50.718;7.072;2023-05-17T09:33:05;13.30;99.90
14236;DHT22;7202;50.718;7.072;2023-05-17T09:35:36;13.30;99.90
14236;DHT22;7202;50.718;7.072;2023-05-17T09:38:06;13.30;99.90
14236;DHT22;7202;50.718;7.072;2023-05-17T09:40:39;13.20;99.90
14236;DHT22;7202;50.718;7.072;2023-05-17T09:43:09;13.20;99.90
14236;DHT22;7202;50.718;7.072;2023-05-17T09:45:38;13.20;99.90
14236;DHT22;7202;50.718;7.072;2023-05-17T09:48:13;13.40;99.90
14236;DHT22;7202;50.718;7.072;2023-05-17T09:50:43;13.50;99.90
14236;DHT22;7202;50.718;7.072;2023-05-17T09:53:26;13.60;99.90
14236;DHT22;7202;50.718;7.072;2023-05-17T09:55:56;13.60;99.90
14236;DHT22;7202;50.718;7.072;2023-05-17T09:58:26;13.50;99.90
14236;DHT22;7202;50.718;7.072;2023-05-17T10:00:58;13.50;99.90
14236;DHT22;7202;50.718;7.072;2023-05-17T10:03:31;13.60;99.90
14236;DHT22;7202;50.718;7.072;2023-05-17T10:06:01;13.70;99.90
14236;DHT22;7202;50.718;7.072;2023-05-17T10:08:32;13.80;99.90
14236;DHT22;7202;50.718;7.072;2023-05-17T10:11:04;13.90;99.90
14236;DHT22;7202;50.718;7.072;2023-05-17T10:13:41;14.10;99.90
14236;DHT22;7202;50.718;7.072;2023-05-17T10:16:11;14.20;99.90
14236;DHT22;7202;50.718;7.072;2023-05-17T10:18:42;14.30;99.90
14236;DHT22;7202;50.718;7.072;2023-05-17T10:21:11;14.30;99.90
14236;DHT22;7202;50.718;7.072;2023-05-17T10:23:41;14.20;99.90
14236;DHT22;7202;50.718;7.072;2023-05-17T10:26:12;14.10;99.90
14236;DHT22;7202;50.718;7.072;2023-05-17T10:28:42;14.10;99.90
14236;DHT22;7202;50.718;7.072;2023-05-17T10:31:12;14.10;99.90
14236;DHT22;7202;50.718;7.072;2023-05-17T10:33:44;14.20;99.90
14236;DHT22;7202;50.718;7.072;2023-05-17T10:36:17;14.30;99.90
14236;DHT22;7202;50.718;7.072;2023-05-17T10:38:46;14.40;99.90
14236;DHT22;7202;50.718;7.072;2023-05-17T10:41:15;14.50;99.90
14236;DHT22;7202;50.718;7.072;2023-05-17T10:43:47;14.60;99.90
14236;DHT22;7202;50.718;7.072;2023-05-17T10:46:17;14.80;99.90
14236;DHT22;7202;50.718;7.072;2023-05-17T10:48:49;14.80;99.90
14236;DHT22;7202;50.718;7.072;2023-05-17T10:51:21;14.80;99.90
14236;DHT22;7202;50.718;7.072;2023-05-17T10:54:06;14.70;99.90
14236;DHT22;7202;50.718;7.072;2023-05-17T10:56:39;14.70;99.90
14236;DHT22;7202;50.718;7.072;2023-05-17T10:59:20;14.70;99.90
14236;DHT22;7202;50.718;7.072;2023-05-17T11:01:53;14.70;99.90
14236;DHT22;7202;50.718;7.072;2023-05-17T11:04:25;14.70;99.90
14236;DHT22;7202;50.718;7.072;2023-05-17T11:07:22;14.80;99.90
14236;DHT22;7202;50.718;7.072;2023-05-17T11:09:54;15.00;99.90
14236;DHT22;7202;50.718;7.072;2023-05-17T11:12:32;15.10;99.90
14236;DHT22;7202;50.718;7.072;2023-05-17T11:15:06;15.20;99.90
14236;DHT22;7202;50.718;7.072;2023-05-17T11:17:48;15.30;99.90
14236;DHT22;7202;50.718;7.072;2023-05-17T11:20:31;15.50;99.90
14236;DHT22;7202;50.718;7.072;2023-05-17T11:23:05;15.60;99.90
14236;DHT22;7202;50.718;7.072;2023-05-17T11:25:35;15.60;99.90
14236;DHT22;7202;50.718;7.072;2023-05-17T11:28:06;15.60;99.90
14236;DHT22;7202;50.718;7.072;2023-05-17T11:30:40;15.50;99.90
14236;DHT22;7202;50.718;7.072;2023-05-17T11:33:10;15.50;99.90
14236;DHT22;7202;50.718;7.072;2023-05-17T11:36:03;15.60;99.90
14236;DHT22;7202;50.718;7.072;2023-05-17T11:38:33;15.70;99.90
14236;DHT22;7202;50.718;7.072;2023-05-17T11:41:16;15.80;99.90
14236;DHT22;7202;50.718;7.072;2023-05-17T11:43:48;15.90;99.90
14236;DHT22;7202;50.718;7.072;2023-05-17T11:46:18;16.00;99.90
14236;DHT22;7202;50.718;7.072;2023-05-17T11:48:50;16.00;99.90
14236;DHT22;7202;50.718;7.072;2023-05-17T11:51:20;16.10;99.90
14236;DHT22;7202;50.718;7.072;2023-05-17T11:53:54;16.20;99.90
14236;DHT22;7202;50.718;7.072;2023-05-17T11:56:23;16.20;99.90
14236;DHT22;7202;50.718;7.072;2023-05-17T11:59:09;16.20;99.90
14236;DHT22;7202;50.718;7.072;2023-05-17T12:01:42;16.30;99.90
14236;DHT22;7202;50.718;7.072;2023-05-17T12:04:12;16.30;99.90
14236;DHT22;7202;50.718;7.072;2023-05-17T12:06:41;16.30;99.90
14236;DHT22;7202;50.718;7.072;2023-05-17T12:09:14;16.20;99.90
14236;DHT22;7202;50.718;7.072;2023-05-17T12:11:44;16.20;99.90
14236;DHT22;7202;50.718;7.072;2023-05-17T12:14:14;16.20;99.90
14236;DHT22;7202;50.718;7.072;2023-05-17T12:16:47;16.20;99.90
14236;DHT22;7202;50.718;7.072;2023-05-17T12:19:19;16.30;99.90
14236;DHT22;7202;50.718;7.072;2023-05-17T12:21:48;16.20;99.90
14236;DHT22;7202;50.718;7.072;2023-05-17T12:24:19;16.30;99.90
14236;DHT22;7202;50.718;7.072;2023-05-17T12:26:47;16.20;99.90
14236;DHT22;7202;50.718;7.072;2023-05-17T12:29:18;16.00;99.90
14236;DHT22;7202;50.718;7.072;2023-05-17T12:31:51;16.00;99.90
14236;DHT22;7202;50.718;7.072;2023-05-17T12:34:21;16.10;99.90
14236;DHT22;7202;50.718;7.072;2023-05-17T12:36:50;16.30;99.90
14236;DHT22;7202;50.718;7.072;2023-05-17T12:39:21;16.30;99.90
14236;DHT22;7202;50.718;7.072;2023-05-17T12:41:51;16.40;99.90
14236;DHT22;7202;50.718;7.072;2023-05-17T12:44:20;16.30;99.90
14236;DHT22;7202;50.718;7.072;2023-05-17T12:46:49;16.10;99.90
14236;DHT22;7202;50.718;7.072;2023-05-17T12:49:20;16.20;99.90
14236;DHT22;7202;50.718;7.072;2023-05-17T12:51:49;16.20;99.90
14236;DHT22;7202;50.718;7.072;2023-05-17T12:54:27;16.40;99.90
14236;DHT22;7202;50.718;7.072;2023-05-17T12:56:56;16.40;99.90
14236;DHT22;7202;50.718;7.072;2023-05-17T12:59:24;16.50;99.90
14236;DHT22;7202;50.718;7.072;2023-05-17T13:01:56;16.60;99.90
14236;DHT22;7202;50.718;7.072;2023-05-17T13:04:30;16.50;99.90
14236;DHT22;7202;50.718;7.072;2023-05-17T13:07:01;16.40;99.90
14236;DHT22;7202;50.718;7.072;2023-05-17T13:09:33;16.40;99.90
14236;DHT22;7202;50.718;7.072;2023-05-17T13:12:05;16.50;99.90
14236;DHT22;7202;50.718;7.072;2023-05-17T13:14:36;16.50;99.90
14236;DHT22;7202;50.718;7.072;2023-05-17T13:17:06;16.60;99.90
14236;DHT22;7202;50.718;7.072;2023-05-17T13:19:37;16.70;99.90
14236;DHT22;7202;50.718;7.072;2023-05-17T13:22:06;16.70;99.90
14236;DHT22;7202;50.718;7.072;2023-05-17T13:24:37;16.70;99.90
14236;DHT22;7202;50.718;7.072;2023-05-17T13:27:07;16.70;99.90
14236;DHT22;7202;50.718;7.072;2023-05-17T13:29:38;16.70;99.90
14236;DHT22;7202;50.718;7.072;2023-05-17T13:32:08;16.70;99.90
14236;DHT22;7202;50.718;7.072;2023-05-17T13:34:39;16.80;99.90
14236;DHT22;7202;50.718;7.072;2023-05-17T13:37:08;16.90;99.90
14236;DHT22;7202;50.718;7.072;2023-05-17T13:39:40;16.90;99.90
14236;DHT22;7202;50.718;7.072;2023-05-17T13:42:09;16.90;99.90
14236;DHT22;7202;50.718;7.072;2023-05-17T13:44:38;16.80;99.90
14236;DHT22;7202;50.718;7.072;2023-05-17T13:47:07;16.70;99.90
14236;DHT22;7202;50.718;7.072;2023-05-17T13:49:36;16.60;99.90
14236;DHT22;7202;50.718;7.072;2023-05-17T13:52:05;16.60;99.90
14236;DHT22;7202;50.718;7.072;2023-05-17T13:54:36;16.70;99.90
14236;DHT22;7202;50.718;7.072;2023-05-17T13:57:06;16.70;99.90
14236;DHT22;7202;50.718;7.072;2023-05-17T13:59:35;16.90;99.90
14236;DHT22;7202;50.718;7.072;2023-05-17T14:02:04;16.90;99.90
14236;DHT22;7202;50.718;7.072;2023-05-17T14:04:33;16.90;99.90
14236;DHT22;7202;50.718;7.072;2023-05-17T14:07:02;17.00;99.90
14236;DHT22;7202;50.718;7.072;2023-05-17T14:09:31;17.00;99.90
14236;DHT22;7202;50.718;7.072;2023-05-17T14:12:01;17.00;99.90
14236;DHT22;7202;50.718;7.072;2023-05-17T14:14:31;17.10;99.90
14236;DHT22;7202;50.718;7.072;2023-05-17T14:16:59;17.10;99.90
14236;DHT22;7202;50.718;7.072;2023-05-17T14:19:28;17.10;99.90
14236;DHT22;7202;50.718;7.072;2023-05-17T14:21:58;17.10;99.90
14236;DHT22;7202;50.718;7.072;2023-05-17T14:24:26;17.20;99.90
14236;DHT22;7202;50.718;7.072;2023-05-17T14:26:55;17.20;99.90
14236;DHT22;7202;50.718;7.072;2023-05-17T14:29:25;17.20;99.90
14236;DHT22;7202;50.718;7.072;2023-05-17T14:31:55;17.20;99.90
14236;DHT22;7202;50.718;7.072;2023-05-17T14:34:23;17.20;99.90
14236;DHT22;7202;50.718;7.072;2023-05-17T14:36:52;17.10;99.90
14236;DHT22;7202;50.718;7.072;2023-05-17T14:39:21;17.10;99.90
14236;DHT22;7202;50.718;7.072;2023-05-17T14:41:50;17.10;99.90
14236;DHT22;7202;50.718;7.072;2023-05-17T14:44:18;17.10;99.90
14236;DHT22;7202;50.718;7.072;2023-05-17T14:46:47;17.10;99.90
14236;DHT22;7202;50.718;7.072;2023-05-17T14:49:17;17.10;99.90
14236;DHT22;7202;50.718;7.072;2023-05-17T14:51:46;17.00;99.90
14236;DHT22;7202;50.718;7.072;2023-05-17T14:54:14;17.00;99.90
14236;DHT22;7202;50.718;7.072;2023-05-17T14:56:44;16.90;99.90
14236;DHT22;7202;50.718;7.072;2023-05-17T14:59:13;16.90;99.90
14236;DHT22;7202;50.718;7.072;2023-05-17T15:01:42;16.90;99.90
14236;DHT22;7202;50.718;7.072;2023-05-17T15:04:11;16.80;99.90
14236;DHT22;7202;50.718;7.072;2023-05-17T15:06:41;16.80;99.90
14236;DHT22;7202;50.718;7.072;2023-05-17T15:09:11;16.80;99.90
14236;DHT22;7202;50.718;7.072;2023-05-17T15:11:40;16.80;99.90
14236;DHT22;7202;50.718;7.072;2023-05-17T15:14:09;16.80;99.90
14236;DHT22;7202;50.718;7.072;2023-05-17T15:16:38;16.80;99.90
14236;DHT22;7202;50.718;7.072;2023-05-17T15:19:07;16.70;99.90
14236;DHT22;7202;50.718;7.072;2023-05-17T15:21:36;16.80;99.90
14236;DHT22;7202;50.718;7.072;2023-05-17T15:24:06;16.70;99.90
14236;DHT22;7202;50.718;7.072;2023-05-17T15:26:37;16.70;99.90
14236;DHT22;7202;50.718;7.072;2023-05-17T15:29:06;16.70;99.90
14236;DHT22;7202;50.718;7.072;2023-05-17T15:31:34;16.70;99.90
14236;DHT22;7202;50.718;7.072;2023-05-17T15:34:03;16.70;99.90
14236;DHT22;7202;50.718;7.072;2023-05-17T15:36:32;16.60;99.90
14236;DHT22;7202;50.718;7.072;2023-05-17T15:39:01;16.60;99.90
14236;DHT22;7202;50.718;7.072;2023-05-17T15:41:31;16.70;99.90
14236;DHT22;7202;50.718;7.072;2023-05-17T15:44:00;16.70;99.90
14236;DHT22;7202;50.718;7.072;2023-05-17T15:46:28;16.70;99.90
14236;DHT22;7202;50.718;7.072;2023-05-17T15:48:57;16.70;99.90
14236;DHT22;7202;50.718;7.072;2023-05-17T15:51:26;16.70;99.90
14236;DHT22;7202;50.718;7.072;2023-05-17T15:53:54;16.70;99.90
14236;DHT22;7202;50.718;7.072;2023-05-17T15:56:23;16.70;99.90
14236;DHT22;7202;50.718;7.072;2023-05-17T15:58:53;16.60;99.90
14236;DHT22;7202;50.718;7.072;2023-05-17T16:01:22;16.60;99.90
14236;DHT22;7202;50.718;7.072;2023-05-17T16:03:51;16.60;99.90
14236;DHT22;7202;50.718;7.072;2023-05-17T16:06:19;16.60;99.90
14236;DHT22;7202;50.718;7.072;2023-05-17T16:08:48;16.60;99.90